Time;durP1;ratioP1;P1;durP2;ratioP2;P2;SDS_P1;SDS_P2;PMS_P1;PMS_P2;Temp;Humidity;BMP_temperature;BMP_pressure;BME280_temperature;BME280_humidity;BME280_pressure;Samples;Min_cycle;Max_cycle;Signal;HPM_P1;HPM_P2
2022/03/03 04:00:19;;;;;;;3.42;1.90;;;15.90;47.90;;;;;;6024286;23;45788;-65
2022/03/03 04:02:45;;;;;;;2.28;1.88;;;15.80;47.90;;;;;;4851917;29;45305;-65
2022/03/03 04:05:11;;;;;;;2.28;1.83;;;15.80;47.90;;;;;;4877139;29;45457;-64
2022/03/03 04:07:37;;;;;;;2.55;2.05;;;15.80;47.80;;;;;;4898274;28;45388;-64
2022/03/03 04:10:03;;;;;;;1.70;1.60;;;15.80;47.80;;;;;;4871762;29;44997;-64
2022/03/03 04:12:29;;;;;;;3.00;2.38;;;15.80;47.80;;;;;;4888533;29;48181;-64
2022/03/03 04:14:54;;;;;;;3.47;2.17;;;15.80;47.80;;;;;;4906351;28;45153;-64
2022/03/03 04:17:20;;;;;;;1.98;1.77;;;15.80;47.80;;;;;;4906823;28;44885;-64
2022/03/03 04:19:46;;;;;;;2.25;1.65;;;15.80;47.80;;;;;;4903504;28;45586;-64
2022/03/03 04:22:11;;;;;;;2.08;1.88;;;15.80;47.80;;;;;;4903712;28;45521;-64
2022/03/03 04:24:37;;;;;;;2.03;1.83;;;15.80;47.80;;;;;;4875398;29;45277;-64
2022/03/03 04:27:04;;;;;;;2.05;1.70;;;15.70;47.70;;;;;;4899427;28;45139;-64
2022/03/03 04:29:29;;;;;;;2.53;1.67;;;15.70;47.80;;;;;;4869527;28;45352;-64
2022/03/03 04:31:57;;;;;;;3.05;1.85;;;15.70;47.80;;;;;;4882423;28;45514;-64
2022/03/03 04:34:25;;;;;;;2.28;1.90;;;15.80;47.80;;;;;;4854217;28;45361;-64
2022/03/03 04:36:51;;;;;;;2.88;2.28;;;15.70;47.70;;;;;;4903355;28;45244;-63
2022/03/03 04:39:16;;;;;;;2.42;2.00;;;15.70;48.30;;;;;;4883351;28;45413;-64
2022/03/03 04:41:42;;;;;;;2.83;2.08;;;15.70;47.70;;;;;;4867969;28;45155;-64
2022/03/03 04:44:07;;;;;;;3.50;2.00;;;15.70;47.80;;;;;;4886198;28;45151;-64
2022/03/03 04:46:33;;;;;;;2.28;1.80;;;15.60;47.80;;;;;;4904985;28;45530;-64
2022/03/03 04:49:02;;;;;;;3.40;2.10;;;15.60;48.40;;;;;;4907217;28;45103;-64
2022/03/03 04:51:28;;;;;;;2.38;1.80;;;15.60;47.80;;;;;;4901450;28;46148;-64
2022/03/03 04:53:54;;;;;;;2.63;2.33;;;15.60;47.80;;;;;;4886258;28;44783;-64
2022/03/03 04:56:20;;;;;;;2.80;2.33;;;15.60;47.80;;;;;;4905493;28;44840;-64
2022/03/03 04:58:45;;;;;;;2.55;1.85;;;15.60;47.90;;;;;;4869971;28;45231;-64
2022/03/03 05:01:11;;;;;;;1.98;1.75;;;15.60;47.90;;;;;;4880667;28;47371;-64
2022/03/03 05:03:37;;;;;;;2.33;1.73;;;15.50;47.80;;;;;;4886967;28;44908;-64
2022/03/03 05:06:03;;;;;;;1.75;1.60;;;15.60;47.80;;;;;;4913444;28;45284;-64
2022/03/03 05:08:29;;;;;;;2.85;2.08;;;15.60;47.80;;;;;;4887661;28;45203;-64
2022/03/03 05:10:54;;;;;;;2.42;1.77;;;15.50;47.80;;;;;;4888571;28;46062;-64
2022/03/03 05:13:20;;;;;;;2.60;1.95;;;15.50;47.80;;;;;;4891781;28;45505;-64
2022/03/03 05:15:46;;;;;;;2.80;2.22;;;15.50;47.80;;;;;;4888415;29;45238;-63
2022/03/03 05:18:12;;;;;;;2.28;1.73;;;15.50;47.80;;;;;;4898049;28;45403;-64
2022/03/03 05:20:38;;;;;;;2.30;2.10;;;15.50;47.80;;;;;;4895516;29;45058;-63
2022/03/03 05:23:04;;;;;;;2.72;2.00;;;15.50;47.80;;;;;;4908642;28;46429;-64
2022/03/03 05:25:30;;;;;;;2.85;2.20;;;15.50;47.80;;;;;;4875135;29;45029;-64
2022/03/03 05:27:58;;;;;;;2.92;2.22;;;15.50;47.80;;;;;;4898378;28;45229;-64
2022/03/03 05:30:23;;;;;;;2.40;1.88;;;15.40;47.80;;;;;;4905243;28;45225;-64
2022/03/03 05:32:49;;;;;;;2.75;1.90;;;15.50;47.80;;;;;;4887431;29;44636;-64
2022/03/03 05:35:15;;;;;;;2.50;2.08;;;15.40;47.80;;;;;;4913199;28;45265;-64
2022/03/03 05:37:41;;;;;;;1.90;1.70;;;15.40;47.80;;;;;;4884235;29;46670;-62
2022/03/03 05:40:07;;;;;;;2.38;1.92;;;15.40;47.90;;;;;;4893008;28;45495;-64
2022/03/03 05:42:32;;;;;;;3.90;2.35;;;15.40;47.90;;;;;;4889490;28;45362;-66
2022/03/03 05:44:58;;;;;;;2.78;1.85;;;15.40;47.90;;;;;;4887653;29;45237;-67
2022/03/03 05:47:23;;;;;;;2.53;1.95;;;15.50;47.50;;;;;;4904556;28;44921;-66
2022/03/03 05:49:50;;;;;;;2.55;1.80;;;15.60;47.30;;;;;;4892985;28;45312;-64
2022/03/03 05:52:17;;;;;;;2.28;2.08;;;15.80;47.00;;;;;;4904628;28;45447;-66
2022/03/03 05:54:42;;;;;;;2.30;1.90;;;15.90;46.80;;;;;;4903155;28;45309;-64
2022/03/03 05:57:25;;;;;;;3.38;2.05;;;16.00;46.60;;;;;;4910803;28;45560;-65
2022/03/03 05:59:51;;;;;;;2.33;1.85;;;16.20;46.40;;;;;;4895461;28;46387;-65
2022/03/03 06:02:20;;;;;;;3.25;1.80;;;16.30;46.20;;;;;;4899120;28;44686;-65
2022/03/03 06:04:48;;;;;;;2.28;1.83;;;16.40;46.10;;;;;;4878213;29;44608;-67
2022/03/03 06:07:13;;;;;;;2.08;1.85;;;16.60;46.00;;;;;;4872451;29;46231;-65
2022/03/03 06:09:39;;;;;;;2.00;1.80;;;16.70;45.90;;;;;;4892720;29;46216;-65
2022/03/03 06:12:06;;;;;;;2.60;1.88;;;16.70;45.80;;;;;;4873136;29;45589;-66
2022/03/03 06:14:40;;;;;;;2.53;1.80;;;16.90;45.70;;;;;;4894509;29;45701;-66
2022/03/03 06:17:06;;;;;;;1.80;1.70;;;17.00;45.50;;;;;;4884413;29;45068;-65
2022/03/03 06:19:35;;;;;;;1.90;1.60;;;17.10;45.40;;;;;;4895571;28;46078;-66
2022/03/03 06:22:01;;;;;;;1.83;1.50;;;17.20;45.30;;;;;;4880262;29;44892;-66
2022/03/03 06:24:27;;;;;;;2.70;1.70;;;17.30;45.20;;;;;;4871291;29;45280;-67
2022/03/03 06:26:53;;;;;;;2.20;1.70;;;17.40;45.20;;;;;;4907367;28;45320;-67
2022/03/03 06:29:18;;;;;;;1.95;1.60;;;17.50;45.00;;;;;;4902302;28;45624;-66
2022/03/03 06:31:44;;;;;;;2.50;1.60;;;17.60;45.60;;;;;;4885958;29;45374;-65
2022/03/03 06:34:10;;;;;;;2.25;1.65;;;17.70;44.90;;;;;;4888464;29;44686;-66
2022/03/03 06:36:36;;;;;;;3.72;1.40;;;17.80;44.80;;;;;;4881655;29;45248;-66
2022/03/03 06:39:02;;;;;;;2.33;1.60;;;17.90;44.70;;;;;;4903770;28;47235;-65
2022/03/03 06:41:29;;;;;;;3.25;1.33;;;18.10;44.70;;;;;;4887608;28;45620;-66
2022/03/03 06:43:54;;;;;;;2.50;1.65;;;18.20;44.50;;;;;;4907853;28;45343;-66
2022/03/03 06:46:21;;;;;;;1.70;1.58;;;18.30;44.50;;;;;;4897154;29;45748;-65
2022/03/03 06:48:47;;;;;;;2.90;1.67;;;18.40;44.40;;;;;;4889926;28;46227;-66
2022/03/03 06:51:15;;;;;;;1.65;1.40;;;18.50;44.30;;;;;;4885804;28;45914;-64
2022/03/03 06:53:41;;;;;;;2.45;1.70;;;18.60;44.20;;;;;;4875580;28;44949;-67
2022/03/03 06:56:09;;;;;;;2.78;1.75;;;18.70;44.00;;;;;;4894935;28;45423;-66
2022/03/03 06:58:35;;;;;;;1.83;1.38;;;18.80;44.00;;;;;;4893654;28;46932;-65
2022/03/03 07:01:07;;;;;;;2.33;1.80;;;18.90;43.90;;;;;;4877523;28;45339;-66
2022/03/03 07:03:32;;;;;;;2.13;1.35;;;19.00;43.80;;;;;;4887358;28;45293;-65
2022/03/03 07:05:58;;;;;;;1.95;1.60;;;19.10;43.70;;;;;;4887853;28;45230;-66
2022/03/03 07:08:24;;;;;;;1.92;1.30;;;19.20;43.60;;;;;;4893753;28;45205;-64
2022/03/03 07:10:49;;;;;;;1.70;1.58;;;19.40;43.60;;;;;;4905786;28;45381;-66
2022/03/03 07:13:18;;;;;;;1.52;1.30;;;19.50;43.50;;;;;;4885439;28;45326;-65
2022/03/03 07:15:49;;;;;;;1.60;1.50;;;19.60;43.40;;;;;;4901559;28;45054;-66
2022/03/03 07:18:16;;;;;;;2.00;1.63;;;19.60;43.30;;;;;;4884782;28;45297;-64
2022/03/03 07:20:51;;;;;;;1.60;1.40;;;19.80;43.20;;;;;;4891217;28;44770;-66
2022/03/03 07:23:28;;;;;;;3.20;1.45;;;19.90;43.10;;;;;;4891592;28;44802;-65
2022/03/03 07:25:56;;;;;;;2.45;1.33;;;20.00;43.50;;;;;;4909492;28;44860;-64
2022/03/03 07:28:21;;;;;;;1.63;1.45;;;20.10;42.90;;;;;;4889998;28;45213;-66
2022/03/03 07:30:49;;;;;;;2.20;1.38;;;20.20;42.90;;;;;;4891924;29;44935;-65
2022/03/03 07:33:33;;;;;;;1.40;1.30;;;20.30;42.80;;;;;;4860195;29;45131;-66
2022/03/03 07:35:59;;;;;;;2.13;1.40;;;20.40;42.60;;;;;;4896759;28;45209;-64
2022/03/03 07:38:33;;;;;;;1.50;1.33;;;20.40;42.60;;;;;;4887530;28;45373;-66
2022/03/03 07:40:59;;;;;;;1.70;1.30;;;20.50;42.50;;;;;;4889024;28;45512;-64
2022/03/03 07:43:24;;;;;;;1.95;1.33;;;20.70;42.50;;;;;;4869541;28;45309;-66
2022/03/03 07:45:50;;;;;;;1.35;1.15;;;20.80;42.40;;;;;;4888727;28;45188;-65
2022/03/03 07:48:16;;;;;;;1.48;1.38;;;20.90;42.30;;;;;;4892617;28;45461;-65
2022/03/03 07:50:42;;;;;;;2.05;1.20;;;21.00;42.30;;;;;;4904609;28;44667;-66
2022/03/03 07:53:11;;;;;;;1.35;1.23;;;21.00;42.20;;;;;;4870044;28;45269;-66
2022/03/03 07:55:47;;;;;;;1.55;1.30;;;21.20;42.10;;;;;;4887791;28;45343;-65
2022/03/03 07:58:21;;;;;;;2.30;1.38;;;21.30;41.80;;;;;;4905265;28;45265;-66
2022/03/03 08:00:51;;;;;;;1.17;1.08;;;21.40;41.90;;;;;;4883748;29;45602;-65
2022/03/03 08:03:18;;;;;;;1.58;1.38;;;21.40;41.90;;;;;;4869593;29;45278;-64
2022/03/03 08:06:04;;;;;;;1.30;1.13;;;21.50;41.80;;;;;;4877742;29;45095;-65
2022/03/03 08:08:30;;;;;;;1.67;1.30;;;21.60;41.40;;;;;;4864357;29;46191;-65
2022/03/03 08:11:02;;;;;;;1.60;1.20;;;21.70;41.70;;;;;;4882030;29;45225;-65
2022/03/03 08:13:28;;;;;;;1.27;1.10;;;21.80;41.50;;;;;;4851187;29;45192;-64
2022/03/03 08:15:54;;;;;;;3.38;1.13;;;21.90;41.50;;;;;;4870344;29;45290;-64
2022/03/03 08:18:20;;;;;;;1.75;1.10;;;22.00;41.40;;;;;;4889138;29;45793;-65
2022/03/03 08:20:45;;;;;;;1.13;1.02;;;22.10;41.40;;;;;;4878910;29;44670;-66
2022/03/03 08:23:11;;;;;;;1.08;1.00;;;22.20;41.30;;;;;;4853049;29;45565;-64
2022/03/03 08:25:37;;;;;;;1.20;1.10;;;22.20;41.20;;;;;;4873785;29;45574;-65
2022/03/03 08:28:03;;;;;;;1.45;0.93;;;22.30;41.20;;;;;;4870254;29;45317;-64
2022/03/03 08:30:28;;;;;;;1.58;0.90;;;22.40;41.10;;;;;;4890054;28;45386;-66
2022/03/03 08:32:57;;;;;;;1.35;1.00;;;22.50;41.00;;;;;;4881944;29;44892;-65
2022/03/03 08:35:22;;;;;;;1.10;1.00;;;22.60;41.00;;;;;;4879896;29;45017;-65
2022/03/03 08:37:59;;;;;;;1.05;1.00;;;22.70;41.00;;;;;;4851716;29;46427;-64
2022/03/03 08:40:24;;;;;;;1.10;1.00;;;22.70;40.70;;;;;;4851753;29;45297;-66
2022/03/03 08:42:56;;;;;;;1.25;1.15;;;22.90;40.80;;;;;;4862799;29;45495;-64
2022/03/03 08:45:23;;;;;;;1.42;1.00;;;22.90;40.70;;;;;;4882767;29;45558;-64
2022/03/03 08:47:54;;;;;;;1.13;1.00;;;23.00;40.70;;;;;;4855615;29;45382;-64
2022/03/03 08:50:20;;;;;;;1.45;1.05;;;23.10;40.60;;;;;;4883613;29;45460;-65
2022/03/03 08:52:46;;;;;;;0.95;0.90;;;23.10;40.50;;;;;;4880164;29;45153;-64
2022/03/03 08:55:12;;;;;;;1.77;1.23;;;23.20;40.50;;;;;;4849269;29;45208;-65
2022/03/03 08:57:38;;;;;;;1.30;1.15;;;23.30;40.40;;;;;;4871314;29;45797;-63
2022/03/03 09:00:05;;;;;;;3.35;1.30;;;23.40;40.30;;;;;;4865687;29;45315;-64
2022/03/03 09:02:31;;;;;;;2.83;0.73;;;23.50;40.30;;;;;;4903225;28;45196;-64
2022/03/03 09:04:56;;;;;;;1.88;0.95;;;23.60;40.30;;;;;;4870281;29;44827;-64
2022/03/03 09:07:22;;;;;;;1.48;1.10;;;23.60;40.00;;;;;;4880306;29;46153;-64
2022/03/03 09:09:48;;;;;;;3.33;1.00;;;23.70;40.00;;;;;;4851560;29;44964;-64
2022/03/03 09:12:13;;;;;;;1.10;1.00;;;23.80;40.10;;;;;;4865186;29;45321;-64
2022/03/03 09:14:39;;;;;;;0.82;0.82;;;23.80;40.10;;;;;;4882350;29;44831;-64
2022/03/03 09:17:05;;;;;;;1.15;0.85;;;23.90;39.90;;;;;;4872900;29;45959;-65
2022/03/03 09:19:30;;;;;;;0.95;0.88;;;24.00;39.90;;;;;;4870541;29;45144;-64
2022/03/03 09:21:56;;;;;;;3.53;1.00;;;24.10;40.00;;;;;;4883858;29;45516;-65
2022/03/03 09:24:23;;;;;;;1.10;0.90;;;24.10;39.70;;;;;;4886618;29;44680;-64
2022/03/03 09:26:50;;;;;;;1.20;0.80;;;24.20;39.70;;;;;;4884343;29;46423;-64
2022/03/03 09:29:17;;;;;;;2.55;1.10;;;24.30;39.80;;;;;;4868480;29;44886;-65
2022/03/03 09:31:44;;;;;;;1.40;1.00;;;24.40;39.60;;;;;;4885690;29;44652;-64
2022/03/03 09:34:09;;;;;;;1.10;0.85;;;24.40;39.50;;;;;;4883478;29;45204;-63
2022/03/03 09:36:35;;;;;;;1.00;0.90;;;24.50;39.50;;;;;;4883370;29;45265;-66
2022/03/03 09:39:01;;;;;;;1.77;0.73;;;24.50;39.40;;;;;;4881067;29;45028;-63
2022/03/03 09:41:26;;;;;;;1.23;0.73;;;24.60;39.40;;;;;;4870891;29;45274;-65
2022/03/03 09:43:52;;;;;;;1.00;0.90;;;24.60;39.40;;;;;;4883265;29;45300;-63
2022/03/03 09:46:17;;;;;;;0.85;0.73;;;24.70;39.30;;;;;;4884775;29;47229;-65
2022/03/03 09:48:43;;;;;;;1.13;1.02;;;24.80;39.30;;;;;;4895734;28;45356;-65
2022/03/03 09:51:08;;;;;;;2.08;0.90;;;24.80;39.20;;;;;;4878920;29;45414;-65
2022/03/03 09:53:34;;;;;;;2.58;1.00;;;24.90;39.20;;;;;;4880393;29;45933;-61
2022/03/03 09:56:00;;;;;;;1.33;1.10;;;25.00;39.20;;;;;;4875279;29;45209;-64
2022/03/03 09:58:25;;;;;;;0.77;0.77;;;25.00;39.10;;;;;;4870958;29;44763;-63
2022/03/03 10:00:51;;;;;;;2.15;0.85;;;25.10;39.10;;;;;;4884119;29;45462;-63
2022/03/03 10:03:17;;;;;;;1.40;0.98;;;25.10;39.10;;;;;;4906649;28;45221;-64
2022/03/03 10:05:49;;;;;;;0.80;0.80;;;25.10;39.10;;;;;;4888022;29;45885;-63
2022/03/03 10:08:16;;;;;;;1.00;0.70;;;25.20;38.90;;;;;;4887873;29;45575;-64
2022/03/03 10:10:46;;;;;;;2.67;1.08;;;25.30;38.90;;;;;;4888079;28;45193;-64
2022/03/03 10:13:16;;;;;;;1.27;1.00;;;25.20;38.80;;;;;;4892801;28;45198;-66
2022/03/03 10:15:42;;;;;;;1.20;0.90;;;25.30;39.00;;;;;;4886583;28;45240;-65
2022/03/03 10:18:13;;;;;;;0.70;0.70;;;25.40;39.00;;;;;;4897012;28;45511;-65
2022/03/03 10:20:55;;;;;;;1.02;0.90;;;25.40;38.70;;;;;;4894779;28;44661;-66
2022/03/03 10:23:34;;;;;;;0.75;0.75;;;25.40;38.70;;;;;;4893530;28;45296;-64
2022/03/03 10:26:01;;;;;;;3.45;0.90;;;25.50;38.80;;;;;;4907307;28;46978;-64
2022/03/03 10:28:28;;;;;;;1.10;0.85;;;25.50;39.40;;;;;;4903993;28;45586;-64
2022/03/03 10:31:05;;;;;;;4.72;0.82;;;25.60;38.90;;;;;;4895537;28;44708;-63
2022/03/03 10:33:34;;;;;;;1.58;0.98;;;25.60;38.80;;;;;;4890349;28;46208;-64
2022/03/03 10:36:21;;;;;;;1.70;1.00;;;25.70;38.80;;;;;;4875826;29;45537;-64
2022/03/03 10:38:47;;;;;;;1.10;0.90;;;25.70;38.80;;;;;;4893142;28;45194;-62
2022/03/03 10:41:35;;;;;;;0.98;0.65;;;25.70;38.80;;;;;;4894371;28;44803;-65
2022/03/03 10:44:04;;;;;;;1.42;0.93;;;25.70;38.30;;;;;;4905683;28;45633;-65
2022/03/03 10:46:30;;;;;;;0.90;0.82;;;25.70;38.70;;;;;;4887518;28;45908;-64
2022/03/03 10:48:56;;;;;;;1.15;0.80;;;25.80;38.80;;;;;;4901749;28;44907;-64
2022/03/03 10:51:24;;;;;;;0.80;0.80;;;25.90;38.70;;;;;;4889081;28;45261;-60
2022/03/03 10:53:54;;;;;;;1.02;0.93;;;25.90;38.60;;;;;;4885258;28;45838;-64
2022/03/03 10:56:19;;;;;;;1.45;0.90;;;25.90;38.70;;;;;;4871540;29;45977;-63
2022/03/03 10:58:49;;;;;;;4.93;0.98;;;26.00;38.70;;;;;;4901442;28;45373;-63
2022/03/03 11:01:35;;;;;;;1.23;0.82;;;26.00;38.60;;;;;;4905707;28;45257;-64
2022/03/03 11:04:01;;;;;;;1.20;0.90;;;26.00;38.20;;;;;;4913276;28;45768;-65
2022/03/03 11:06:30;;;;;;;4.18;1.08;;;26.00;38.60;;;;;;4856163;29;45857;-64
2022/03/03 11:08:57;;;;;;;1.38;0.85;;;26.10;38.50;;;;;;4902667;28;45173;-63
2022/03/03 11:11:23;;;;;;;0.80;0.80;;;26.10;38.60;;;;;;4886669;29;45278;-63
2022/03/03 11:13:49;;;;;;;2.60;1.00;;;26.10;38.60;;;;;;4902785;28;45255;-64
2022/03/03 11:16:25;;;;;;;1.40;0.90;;;26.10;38.50;;;;;;4870876;28;45171;-66
2022/03/03 11:18:52;;;;;;;2.78;1.00;;;26.20;38.50;;;;;;4899458;28;45433;-64
2022/03/03 11:21:17;;;;;;;0.88;0.80;;;26.20;38.50;;;;;;4880506;28;45272;-65
2022/03/03 11:24:04;;;;;;;1.80;1.00;;;26.20;38.40;;;;;;4874399;29;45226;-64
2022/03/03 11:26:39;;;;;;;1.45;1.00;;;26.20;38.30;;;;;;4880455;28;45898;-64
2022/03/03 11:29:07;;;;;;;0.95;0.85;;;26.30;38.50;;;;;;4894276;28;45184;-64
2022/03/03 11:31:33;;;;;;;1.60;0.80;;;26.30;38.40;;;;;;4898169;28;45323;-64
2022/03/03 11:34:17;;;;;;;2.10;0.90;;;26.30;38.30;;;;;;4885045;28;45450;-64
2022/03/03 11:36:44;;;;;;;3.80;0.82;;;26.30;37.90;;;;;;4888738;28;45118;-66
2022/03/03 11:39:10;;;;;;;1.38;0.80;;;26.30;38.30;;;;;;4886099;28;45435;-63
2022/03/03 11:41:46;;;;;;;1.50;0.80;;;26.40;38.30;;;;;;4875663;28;45305;-64
2022/03/03 11:44:14;;;;;;;1.30;0.98;;;26.40;38.00;;;;;;4886830;28;45118;-64
2022/03/03 11:46:45;;;;;;;2.15;0.85;;;26.40;38.20;;;;;;4887409;29;45530;-64
2022/03/03 11:49:11;;;;;;;1.95;0.82;;;26.40;38.10;;;;;;4902470;28;45501;-64
2022/03/03 11:51:37;;;;;;;1.23;0.80;;;26.40;38.30;;;;;;4890946;28;45374;-64
2022/03/03 11:54:10;;;;;;;1.88;0.80;;;26.40;38.30;;;;;;4894627;28;45048;-64
2022/03/03 11:56:56;;;;;;;;;;;26.40;38.10;;;;;;4902257;28;45348;-64
2022/03/03 11:59:22;;;;;;;0.77;0.77;;;26.40;37.60;;;;;;4887731;28;45638;-64
2022/03/03 12:01:56;;;;;;;1.92;0.88;;;26.40;38.40;;;;;;4872589;28;45283;-63
2022/03/03 12:04:25;;;;;;;0.70;0.70;;;26.40;37.90;;;;;;4901912;28;45603;-63
2022/03/03 12:06:51;;;;;;;0.85;0.80;;;26.30;38.90;;;;;;4888299;28;45042;-64
2022/03/03 12:09:21;;;;;;;1.83;0.93;;;26.30;38.30;;;;;;4873033;28;45356;-63
2022/03/03 12:11:47;;;;;;;1.25;0.82;;;26.30;38.30;;;;;;4901071;28;45384;-63
2022/03/03 12:14:39;;;;;;;1.20;0.95;;;26.20;38.50;;;;;;4871883;28;44972;-65
2022/03/03 12:17:56;;;;;;;2.13;1.00;;;26.10;38.30;;;;;;4902153;28;45228;-63
2022/03/03 12:20:32;;;;;;;2.67;1.10;;;26.00;38.50;;;;;;4851294;28;45410;-65
2022/03/03 12:23:18;;;;;;;1.15;1.05;;;25.90;38.80;;;;;;4901955;28;45375;-64
2022/03/03 12:25:50;;;;;;;0.90;0.70;;;25.80;38.60;;;;;;4888875;29;45218;-62
2022/03/03 12:28:19;;;;;;;1.50;0.73;;;25.70;39.40;;;;;;4903251;28;46080;-63
2022/03/03 12:30:46;;;;;;;0.90;0.80;;;25.60;39.00;;;;;;4904087;28;44936;-62
2022/03/03 12:33:26;;;;;;;2.22;1.10;;;25.60;39.20;;;;;;4867529;28;44931;-64
2022/03/03 12:35:52;;;;;;;0.80;0.80;;;25.50;39.00;;;;;;4909959;28;45307;-64
2022/03/03 12:38:18;;;;;;;1.95;0.95;;;25.40;39.20;;;;;;4893255;28;46066;-62
2022/03/03 12:40:44;;;;;;;1.35;0.90;;;25.40;39.20;;;;;;4901913;28;45190;-63
2022/03/03 12:43:13;;;;;;;1.20;0.88;;;25.30;39.30;;;;;;4901067;28;45439;-62
2022/03/03 12:45:39;;;;;;;0.80;0.80;;;25.30;39.30;;;;;;4905906;28;45185;-64
2022/03/03 12:48:06;;;;;;;0.95;0.88;;;25.20;39.50;;;;;;4909594;28;46119;-64
2022/03/03 12:50:33;;;;;;;1.95;0.90;;;25.10;39.60;;;;;;4896300;28;46283;-61
2022/03/03 12:53:05;;;;;;;1.45;1.00;;;25.00;39.70;;;;;;4883431;29;45159;-63
2022/03/03 12:55:31;;;;;;;1.10;1.00;;;25.00;39.70;;;;;;4879785;29;45040;-63
2022/03/03 12:57:57;;;;;;;1.45;0.93;;;24.90;39.80;;;;;;4906737;28;46397;-63
2022/03/03 13:00:23;;;;;;;3.45;1.15;;;24.80;39.80;;;;;;4882950;28;45205;-63
2022/03/03 13:02:50;;;;;;;0.85;0.85;;;24.80;39.90;;;;;;4886603;29;44715;-63
2022/03/03 13:05:48;;;;;;;1.10;1.00;;;24.70;40.00;;;;;;4900371;28;45506;-63
2022/03/03 13:08:21;;;;;;;1.08;0.93;;;24.70;40.00;;;;;;4873558;28;45508;-64
2022/03/03 13:10:47;;;;;;;2.17;1.10;;;24.60;40.20;;;;;;4892758;28;45244;-61
2022/03/03 13:13:12;;;;;;;1.73;1.10;;;24.50;40.20;;;;;;4895645;28;45349;-62
2022/03/03 13:15:39;;;;;;;3.17;1.25;;;24.40;40.30;;;;;;4911202;28;45435;-62
2022/03/03 13:18:08;;;;;;;1.35;1.02;;;24.30;40.30;;;;;;4900013;28;45922;-62
2022/03/03 13:20:40;;;;;;;1.25;1.00;;;24.30;40.50;;;;;;4893709;28;45020;-62
2022/03/03 13:23:12;;;;;;;1.63;1.00;;;24.20;40.50;;;;;;4903219;28;45152;-62
2022/03/03 13:25:38;;;;;;;1.80;1.05;;;24.10;40.60;;;;;;4900199;28;44755;-64
2022/03/03 13:28:04;;;;;;;1.30;1.08;;;24.10;40.70;;;;;;4909172;28;45471;-62
2022/03/03 13:30:29;;;;;;;1.45;1.10;;;24.00;40.80;;;;;;4890287;28;45329;-63
2022/03/03 13:32:55;;;;;;;1.17;1.05;;;23.90;40.80;;;;;;4891982;28;45202;-65
2022/03/03 13:35:22;;;;;;;1.20;1.10;;;23.90;40.90;;;;;;4877117;28;45650;-62
2022/03/03 13:37:47;;;;;;;1.50;1.15;;;23.90;41.00;;;;;;4905735;28;46253;-63
2022/03/03 13:40:20;;;;;;;1.60;1.08;;;23.80;41.00;;;;;;4892633;28;45365;-63
2022/03/03 13:42:46;;;;;;;2.27;1.30;;;23.80;41.10;;;;;;4912975;28;45554;-64
2022/03/03 13:45:12;;;;;;;1.10;1.00;;;23.70;41.20;;;;;;4896357;28;44929;-64
2022/03/03 13:47:42;;;;;;;1.50;1.13;;;23.70;41.30;;;;;;4894939;29;47052;-63
2022/03/03 13:50:09;;;;;;;1.85;1.10;;;23.60;41.30;;;;;;4898573;28;45282;-63
2022/03/03 13:52:36;;;;;;;1.92;1.20;;;23.60;41.40;;;;;;4877643;28;45681;-63
2022/03/03 13:55:16;;;;;;;2.15;1.27;;;23.50;41.40;;;;;;4893439;28;45417;-62
2022/03/03 13:57:54;;;;;;;1.30;1.20;;;23.50;41.50;;;;;;4902748;28;45601;-62
2022/03/03 14:00:26;;;;;;;1.48;1.20;;;23.40;41.60;;;;;;4893693;28;45274;-62
2022/03/03 14:02:53;;;;;;;5.93;1.15;;;23.40;41.60;;;;;;4904787;28;45405;-61
2022/03/03 14:05:29;;;;;;;2.13;1.38;;;23.40;41.60;;;;;;4896848;28;45213;-61
2022/03/03 14:07:55;;;;;;;1.50;1.02;;;23.30;41.70;;;;;;4883552;28;45187;-62
2022/03/03 14:10:20;;;;;;;2.08;1.25;;;23.20;41.70;;;;;;4903104;28;44775;-61
2022/03/03 14:13:05;;;;;;;1.50;1.10;;;23.20;41.70;;;;;;4897634;28;45353;-61
2022/03/03 14:15:31;;;;;;;2.03;1.10;;;23.10;41.90;;;;;;4888810;29;45153;-63
2022/03/03 14:17:56;;;;;;;4.35;1.40;;;23.10;41.90;;;;;;4887239;29;45159;-63
2022/03/03 14:20:22;;;;;;;1.33;1.20;;;23.00;41.90;;;;;;4879845;28;45947;-61
2022/03/03 14:22:57;;;;;;;3.95;1.33;;;23.00;42.00;;;;;;4885460;28;44745;-62
2022/03/03 14:25:24;;;;;;;1.80;1.10;;;23.00;42.10;;;;;;4897231;28;45464;-64
2022/03/03 14:27:50;;;;;;;1.13;0.90;;;22.90;42.10;;;;;;4901093;28;45225;-63
2022/03/03 14:30:15;;;;;;;1.83;1.25;;;22.90;42.20;;;;;;4883243;28;45214;-64
2022/03/03 14:32:41;;;;;;;5.15;1.17;;;22.90;42.20;;;;;;4908106;28;44968;-64
2022/03/03 14:35:08;;;;;;;1.98;1.50;;;22.80;42.20;;;;;;4898125;28;45322;-60
2022/03/03 14:37:34;;;;;;;3.55;1.38;;;22.80;42.30;;;;;;4906699;28;46076;-64
2022/03/03 14:40:00;;;;;;;1.17;1.08;;;22.80;42.30;;;;;;4891815;28;45633;-60
2022/03/03 14:42:26;;;;;;;1.92;1.00;;;22.70;42.40;;;;;;4902804;28;44699;-63
2022/03/03 14:44:51;;;;;;;2.03;1.25;;;22.70;42.30;;;;;;4889678;28;45259;-64
2022/03/03 14:47:17;;;;;;;1.98;1.20;;;22.70;42.40;;;;;;4878223;28;45349;-63
2022/03/03 14:49:42;;;;;;;1.05;0.95;;;22.70;42.40;;;;;;4897233;28;45338;-64
2022/03/03 14:52:08;;;;;;;3.30;1.40;;;22.60;42.40;;;;;;4899113;28;45076;-64
2022/03/03 14:54:33;;;;;;;5.03;1.15;;;22.60;42.50;;;;;;4882803;28;45522;-63
2022/03/03 14:56:59;;;;;;;1.90;1.17;;;22.60;42.50;;;;;;4886192;28;47062;-64
2022/03/03 14:59:24;;;;;;;1.17;1.08;;;22.50;42.50;;;;;;4903282;28;44580;-63
2022/03/03 15:01:50;;;;;;;1.80;1.30;;;22.50;42.60;;;;;;4900298;28;45392;-63
2022/03/03 15:04:17;;;;;;;2.55;1.25;;;22.40;42.70;;;;;;4901402;28;45684;-65
2022/03/03 15:06:43;;;;;;;1.40;1.30;;;22.40;42.70;;;;;;4896136;28;46241;-65
2022/03/03 15:09:09;;;;;;;1.65;1.17;;;22.40;42.80;;;;;;4884836;28;45317;-62
2022/03/03 15:11:34;;;;;;;2.00;1.52;;;22.40;42.80;;;;;;4882294;28;45194;-64
2022/03/03 15:14:00;;;;;;;0.93;0.82;;;22.30;42.80;;;;;;4880702;29;45625;-64
2022/03/03 15:16:27;;;;;;;4.30;1.33;;;22.30;42.80;;;;;;4889543;28;46351;-62
2022/03/03 15:18:52;;;;;;;1.65;1.20;;;22.30;42.80;;;;;;4895795;28;45549;-66
2022/03/03 15:21:18;;;;;;;1.65;1.20;;;22.30;42.90;;;;;;4888110;28;45727;-64
2022/03/03 15:23:44;;;;;;;1.58;1.40;;;22.20;42.90;;;;;;4882492;29;45292;-62
2022/03/03 15:26:09;;;;;;;2.28;1.42;;;22.20;42.90;;;;;;4889460;28;45364;-62
2022/03/03 15:28:35;;;;;;;3.20;1.80;;;22.10;42.90;;;;;;4884832;28;44757;-63
2022/03/03 15:31:01;;;;;;;2.40;1.33;;;22.10;43.00;;;;;;4895269;28;45517;-62
2022/03/03 15:38:56;;;;;;;5.43;1.40;;;21.90;43.30;;;;;;4892719;28;44953;-64
2022/03/03 15:41:22;;;;;;;1.63;1.05;;;21.90;43.20;;;;;;4885978;28;45285;-63
2022/03/03 15:43:47;;;;;;;2.00;1.38;;;21.90;43.20;;;;;;4899079;28;45505;-62
2022/03/03 15:46:13;;;;;;;2.97;1.42;;;21.90;43.20;;;;;;4904102;28;45950;-64
2022/03/03 15:48:38;;;;;;;2.90;1.15;;;21.90;43.30;;;;;;4889522;28;45899;-64
2022/03/03 15:51:04;;;;;;;2.97;1.40;;;21.80;43.20;;;;;;4885417;28;44771;-63
2022/03/03 15:53:29;;;;;;;4.05;1.50;;;21.80;43.30;;;;;;4882237;28;45451;-65
2022/03/03 15:55:57;;;;;;;1.42;1.33;;;21.80;43.20;;;;;;4899339;28;45419;-65
2022/03/03 15:58:22;;;;;;;1.98;1.38;;;21.70;43.20;;;;;;4893963;28;45339;-64
2022/03/03 16:00:48;;;;;;;3.10;1.05;;;21.60;43.40;;;;;;4884926;28;45294;-64
2022/03/03 16:03:14;;;;;;;2.13;1.55;;;21.60;43.50;;;;;;4868313;29;45194;-64
2022/03/03 16:05:41;;;;;;;2.58;1.42;;;21.50;43.50;;;;;;4884612;29;45623;-64
2022/03/03 16:08:07;;;;;;;1.50;1.23;;;21.40;43.60;;;;;;4883056;29;45318;-65
2022/03/03 16:10:32;;;;;;;2.47;1.45;;;21.30;43.70;;;;;;4873604;29;45512;-65
2022/03/03 16:12:58;;;;;;;1.48;1.30;;;21.30;44.00;;;;;;4871982;29;45307;-64
2022/03/03 16:15:23;;;;;;;1.88;1.70;;;21.20;44.10;;;;;;4854008;29;45302;-65
2022/03/03 16:17:49;;;;;;;2.30;1.50;;;21.20;44.10;;;;;;4866861;29;45548;-65
2022/03/03 16:20:15;;;;;;;1.58;1.30;;;21.10;44.00;;;;;;4857794;29;44673;-64
2022/03/03 16:22:41;;;;;;;1.40;1.30;;;21.10;44.20;;;;;;4877568;29;45456;-64
2022/03/03 16:25:07;;;;;;;1.58;1.23;;;21.00;44.20;;;;;;4862577;29;45555;-64
2022/03/03 16:27:32;;;;;;;5.20;1.23;;;21.00;44.20;;;;;;4874797;29;45869;-65
2022/03/03 16:29:58;;;;;;;2.38;1.20;;;21.00;44.20;;;;;;4850350;28;45312;-65
2022/03/03 16:32:23;;;;;;;3.25;1.35;;;20.90;44.30;;;;;;4872884;28;45665;-65
2022/03/03 16:34:50;;;;;;;3.05;1.05;;;20.90;44.40;;;;;;4883627;29;45410;-64
2022/03/03 16:37:17;;;;;;;2.60;1.70;;;20.80;44.40;;;;;;4866866;29;45290;-65
2022/03/03 16:39:43;;;;;;;3.03;1.50;;;20.80;44.40;;;;;;4847542;29;45393;-65
2022/03/03 16:42:10;;;;;;;1.98;1.35;;;20.80;44.30;;;;;;4863666;29;45333;-64
2022/03/03 16:44:36;;;;;;;1.40;1.30;;;20.80;44.30;;;;;;4847858;29;44962;-65
2022/03/03 16:47:02;;;;;;;2.80;1.35;;;20.80;44.40;;;;;;4869860;29;45229;-65
2022/03/03 16:49:28;;;;;;;2.20;1.40;;;20.70;44.50;;;;;;4865843;29;44801;-64
2022/03/03 16:51:54;;;;;;;2.63;1.45;;;20.60;44.50;;;;;;4870469;29;45449;-65
2022/03/03 16:54:19;;;;;;;1.60;1.48;;;20.60;44.60;;;;;;4863856;29;47057;-65
2022/03/03 16:56:45;;;;;;;1.30;1.20;;;20.60;44.70;;;;;;4869469;29;45397;-65